createdAt,value
2023-03-24T00:02:25.653Z,14.00
2023-03-24T00:08:30.941Z,13.93
2023-03-24T00:14:33.438Z,13.99
2023-03-24T00:20:35.663Z,14.05
2023-03-24T00:26:41.143Z,13.71
2023-03-24T00:32:44.405Z,13.63
2023-03-24T00:38:50.458Z,13.67
2023-03-24T00:44:54.261Z,13.62
2023-03-24T00:50:59.092Z,13.16
2023-03-24T00:57:03.722Z,13.10
2023-03-24T01:03:06.003Z,12.98
2023-03-24T01:09:10.892Z,12.88
2023-03-24T01:15:20.251Z,12.76
2023-03-24T01:21:22.579Z,12.76
2023-03-24T01:27:26.672Z,12.76
2023-03-24T01:33:29.746Z,12.72
2023-03-24T01:39:32.874Z,12.75
2023-03-24T01:46:13.311Z,13.13
2023-03-24T01:52:26.808Z,13.19
2023-03-24T01:58:32.673Z,13.27
2023-03-24T02:05:03.642Z,13.25
2023-03-24T02:11:12.112Z,13.28
2023-03-24T02:18:02.909Z,13.27
2023-03-24T02:24:09.365Z,13.08
2023-03-24T02:30:17.845Z,13.12
2023-03-24T02:36:50.550Z,13.04
2023-03-24T02:43:05.936Z,13.14
2023-03-24T02:49:44.188Z,13.00
2023-03-24T02:56:11.085Z,13.14
2023-03-24T03:02:21.466Z,13.02
2023-03-24T03:08:34.213Z,13.03
2023-03-24T03:14:44.808Z,12.95
2023-03-24T03:20:58.644Z,12.98
2023-03-24T03:27:10.666Z,12.87
2023-03-24T03:33:27.521Z,12.81
2023-03-24T03:39:35.685Z,12.93
2023-03-24T03:45:43.023Z,12.93
2023-03-24T03:51:46.038Z,12.86
2023-03-24T03:57:52.760Z,12.97
2023-03-24T04:04:06.926Z,12.97
2023-03-24T04:10:59.034Z,12.99
2023-03-24T04:17:40.978Z,13.22
2023-03-24T04:24:10.662Z,13.22
